createdAt,value
2022-12-24T00:00:00.263Z,9.4
2022-12-24T00:05:01.422Z,9.5
2022-12-24T00:10:00.374Z,9.5
2022-12-24T00:15:00.127Z,9.5
2022-12-24T00:20:00.101Z,9.4
2022-12-24T00:25:00.262Z,9.4
2022-12-24T00:30:00.380Z,9.4
2022-12-24T00:35:00.350Z,9.2
2022-12-24T00:40:00.561Z,9.2
2022-12-24T00:45:00.566Z,9.1
2022-12-24T00:50:00.117Z,8.9
2022-12-24T00:55:00.235Z,8.9
2022-12-24T01:00:00.497Z,8.8
2022-12-24T01:05:00.304Z,8.9
2022-12-24T01:10:00.071Z,8.8
2022-12-24T01:15:00.324Z,8.6
2022-12-24T01:20:00.634Z,8.3
2022-12-24T01:25:00.361Z,8
2022-12-24T01:30:00.469Z,7.8
2022-12-24T01:35:00.014Z,7.7
2022-12-24T01:40:00.169Z,7.6
2022-12-24T01:45:00.136Z,7.4
2022-12-24T01:50:01.708Z,7.3
2022-12-24T01:55:03.209Z,7.3
2022-12-24T01:59:59.951Z,7.3
2022-12-24T02:04:59.978Z,7.1
2022-12-24T02:09:59.995Z,7.2
2022-12-24T02:14:59.925Z,7.1
2022-12-24T02:20:00.013Z,7.1
2022-12-24T02:25:00.152Z,6.9
2022-12-24T02:30:00.227Z,6.9
2022-12-24T02:35:03.537Z,6.9
2022-12-24T02:40:02.574Z,6.9
2022-12-24T02:44:59.921Z,6.9
2022-12-24T02:50:00.247Z,7.1
2022-12-24T02:55:00.280Z,7.2
2022-12-24T03:00:01.786Z,7.2
2022-12-24T03:05:00.322Z,7.3
2022-12-24T03:10:05.309Z,7.4
2022-12-24T03:14:59.968Z,7.5
2022-12-24T03:20:00.322Z,7.5
2022-12-24T03:25:00.205Z,7.5
2022-12-24T03:29:59.958Z,7.6
2022-12-24T03:35:00.298Z,7.7
2022-12-24T03:40:00.395Z,7.8
2022-12-24T03:45:00.228Z,7.8
2022-12-24T03:50:00.117Z,8
2022-12-24T03:55:00.165Z,8.2
2022-12-24T03:59:59.969Z,8.1
2022-12-24T04:05:00.210Z,8.3
2022-12-24T04:09:59.995Z,8.3
2022-12-24T04:15:00.137Z,8.3
2022-12-24T04:20:00.219Z,8.4
2022-12-24T04:25:00.344Z,8.3
2022-12-24T04:29:59.969Z,8.3
2022-12-24T04:34:59.887Z,8.2
2022-12-24T04:39:59.996Z,8.2
2022-12-24T04:45:00.017Z,8.3
2022-12-24T04:49:59.933Z,8.3
2022-12-24T04:54:59.987Z,8.3
2022-12-24T05:00:00.046Z,8.3
2022-12-24T05:04:59.880Z,8.3
2022-12-24T05:09:59.789Z,8.3
2022-12-24T05:15:00.082Z,8.3
2022-12-24T05:20:00.169Z,8.4
2022-12-24T05:24:59.770Z,8.4
2022-12-24T05:30:00.213Z,8.4
2022-12-24T05:34:59.999Z,8.5
2022-12-24T05:39:59.991Z,8.4
2022-12-24T05:45:00.051Z,8.4
2022-12-24T05:49:59.942Z,8.3
2022-12-24T05:54:59.770Z,8.3
2022-12-24T06:00:00.076Z,8.3
2022-12-24T06:04:59.908Z,8.4
2022-12-24T06:10:00.281Z,8.4
2022-12-24T06:14:59.717Z,8.5
2022-12-24T06:19:59.761Z,8.6
2022-12-24T06:24:59.788Z,8.5
2022-12-24T06:30:00.084Z,8.5
2022-12-24T06:34:59.806Z,8.5
2022-12-24T06:39:59.859Z,8.5
2022-12-24T06:45:07.517Z,8.5
2022-12-24T06:50:00.120Z,8.6
2022-12-24T06:55:00.035Z,8.5
2022-12-24T07:00:00.348Z,8.6
2022-12-24T07:04:59.874Z,8.6
2022-12-24T07:09:59.750Z,8.4
2022-12-24T07:14:59.909Z,8.4
2022-12-24T07:19:59.884Z,8.3
2022-12-24T07:24:59.679Z,8
2022-12-24T07:30:00.168Z,8
2022-12-24T07:34:59.807Z,7.9
2022-12-24T07:39:59.846Z,7.9
2022-12-24T07:44:59.719Z,7.9
2022-12-24T07:49:59.760Z,7.9
2022-12-24T07:54:59.771Z,8
2022-12-24T07:59:59.682Z,8.1
2022-12-24T08:04:59.854Z,8.1
2022-12-24T08:09:59.824Z,8
2022-12-24T08:14:59.971Z,8.1
2022-12-24T08:19:59.811Z,8.1
2022-12-24T08:24:59.707Z,8.1
2022-12-24T08:29:59.986Z,8.3
2022-12-24T08:34:59.907Z,8.4
2022-12-24T08:39:59.894Z,8.4
2022-12-24T08:44:59.858Z,8.6
2022-12-24T08:49:59.753Z,8.6
2022-12-24T08:54:59.587Z,8.6
2022-12-24T08:59:59.715Z,8.7
2022-12-24T09:05:00.035Z,8.8
2022-12-24T09:10:00.046Z,9
2022-12-24T09:15:03.450Z,8.9
2022-12-24T09:20:00.014Z,8.9
2022-12-24T09:24:59.842Z,9
2022-12-24T09:30:00.163Z,9.1
2022-12-24T09:34:59.912Z,9.1
2022-12-24T09:39:59.710Z,9.2
2022-12-24T09:45:01.867Z,9.1
2022-12-24T09:49:59.597Z,9
2022-12-24T09:54:59.743Z,9.1
2022-12-24T09:59:59.725Z,9.2
2022-12-24T10:04:59.530Z,9.3
2022-12-24T10:09:59.768Z,9.1
2022-12-24T10:15:02.698Z,9.2
2022-12-24T10:20:15.583Z,9.2
2022-12-24T10:24:59.747Z,9.3
2022-12-24T10:30:00.943Z,9.2
2022-12-24T10:34:59.898Z,9.3
2022-12-24T10:39:59.678Z,9.3
2022-12-24T10:44:59.653Z,9.4
2022-12-24T10:49:59.700Z,9.5
2022-12-24T10:54:59.751Z,9.5
2022-12-24T10:59:59.643Z,9.6
2022-12-24T11:04:59.766Z,9.6
2022-12-24T11:10:00.747Z,9.7
2022-12-24T11:14:59.783Z,9.6
2022-12-24T11:19:59.746Z,9.8
2022-12-24T11:24:59.757Z,9.5
2022-12-24T11:30:00.261Z,9.7
2022-12-24T11:34:59.626Z,9.4
2022-12-24T11:40:00.631Z,9.5
2022-12-24T11:44:59.429Z,9.5
2022-12-24T11:50:17.598Z,9.6
2022-12-24T11:55:10.366Z,9.6
2022-12-24T11:59:59.426Z,9.8
2022-12-24T12:04:59.673Z,9.8
2022-12-24T12:09:59.528Z,10
2022-12-24T12:15:00.620Z,9.8
2022-12-24T12:19:59.481Z,9.7
2022-12-24T12:24:59.712Z,9.8
2022-12-24T12:29:59.539Z,9.9
2022-12-24T12:34:59.460Z,10.1
2022-12-24T12:39:59.418Z,10.1
2022-12-24T12:44:59.444Z,10.2
2022-12-24T12:50:05.715Z,10
2022-12-24T12:55:03.666Z,10
2022-12-24T12:59:59.634Z,9.9
2022-12-24T13:04:59.457Z,9.8
2022-12-24T13:10:12.173Z,9.9
2022-12-24T13:14:59.548Z,10
2022-12-24T13:19:59.459Z,10
2022-12-24T13:24:59.595Z,10.3
2022-12-24T13:30:06.908Z,10.1
2022-12-24T13:34:59.503Z,10.1
2022-12-24T13:39:59.557Z,10
2022-12-24T13:44:59.456Z,10
2022-12-24T13:50:13.237Z,9.8
2022-12-24T13:55:03.233Z,9.9
2022-12-24T14:00:01.253Z,9.9
2022-12-24T14:05:01.114Z,9.8
2022-12-24T14:09:59.585Z,9.9
2022-12-24T14:15:42.983Z,9.7
2022-12-24T14:20:00.858Z,9.6
2022-12-24T14:24:59.469Z,9.9
2022-12-24T14:29:59.494Z,10
2022-12-24T14:34:59.579Z,9.7
2022-12-24T14:39:59.861Z,9.7
2022-12-24T14:44:59.542Z,9.6
2022-12-24T14:49:59.567Z,9.5
2022-12-24T14:54:59.540Z,9.4
2022-12-24T14:59:59.474Z,9.5
2022-12-24T15:04:59.508Z,9.4
2022-12-24T15:10:01.540Z,9
2022-12-24T15:14:59.470Z,8.9
2022-12-24T15:19:59.652Z,8.7
2022-12-24T15:24:59.509Z,8.7
2022-12-24T15:29:59.560Z,8.6
2022-12-24T15:34:59.575Z,8.5
2022-12-24T15:39:59.333Z,8.4
2022-12-24T15:44:59.570Z,8.4
2022-12-24T15:49:59.489Z,8.3
2022-12-24T15:54:59.305Z,8.3
2022-12-24T15:59:59.731Z,8.2
2022-12-24T16:04:59.559Z,8.2
2022-12-24T16:09:59.686Z,8.2
2022-12-24T16:14:59.667Z,8
2022-12-24T16:19:59.570Z,7.9
2022-12-24T16:24:59.406Z,7.7
2022-12-24T16:29:59.352Z,7.7
2022-12-24T16:34:59.502Z,7.6
2022-12-24T16:39:59.598Z,7.6
2022-12-24T16:44:59.629Z,7.5
2022-12-24T16:50:00.295Z,7.6
2022-12-24T16:55:00.092Z,7.6
2022-12-24T17:00:01.761Z,7.4
2022-12-24T17:04:59.571Z,7.4
2022-12-24T17:09:59.352Z,7.3
2022-12-24T17:14:59.338Z,7.4
2022-12-24T17:19:59.403Z,7.2
2022-12-24T17:24:59.278Z,7.3
2022-12-24T17:29:59.388Z,7.1
2022-12-24T17:34:59.666Z,7.1
2022-12-24T17:39:59.500Z,7.1
2022-12-24T17:44:59.344Z,7
2022-12-24T17:49:59.548Z,6.9
2022-12-24T17:54:59.440Z,7
2022-12-24T17:59:59.835Z,7
2022-12-24T18:04:59.469Z,7
2022-12-24T18:09:59.309Z,7
2022-12-24T18:14:59.344Z,6.9
2022-12-24T18:19:59.304Z,7
2022-12-24T18:24:59.343Z,7.1
2022-12-24T18:29:59.799Z,7.2
2022-12-24T18:35:00.830Z,7.2
2022-12-24T18:40:00.506Z,7.2
2022-12-24T18:45:00.591Z,7.1
2022-12-24T18:50:00.509Z,7.1
2022-12-24T18:55:00.612Z,7.3
2022-12-24T19:00:00.617Z,7.3
2022-12-24T19:05:00.666Z,7.3
2022-12-24T19:10:00.686Z,7.2
2022-12-24T19:15:00.802Z,7.2
2022-12-24T19:20:00.437Z,7.2
2022-12-24T19:25:00.434Z,7.2
2022-12-24T19:30:00.570Z,7.3
2022-12-24T19:35:00.798Z,7.5
2022-12-24T19:40:00.289Z,7.4
2022-12-24T19:45:00.519Z,7.4
2022-12-24T19:50:00.395Z,7.8
2022-12-24T19:55:00.540Z,7.5
2022-12-24T20:00:00.591Z,7.6
2022-12-24T20:05:00.761Z,7.6
2022-12-24T20:10:00.498Z,7.6
2022-12-24T20:15:00.773Z,7.8
2022-12-24T20:20:00.707Z,7.7
2022-12-24T20:25:00.259Z,7.7
2022-12-24T20:30:00.564Z,7.9
2022-12-24T20:35:00.411Z,7.9
2022-12-24T20:40:00.725Z,8
2022-12-24T20:45:00.567Z,8
2022-12-24T20:50:00.654Z,7.9
2022-12-24T20:55:00.684Z,7.9
2022-12-24T21:00:00.346Z,8
2022-12-24T21:05:02.440Z,8
2022-12-24T21:10:01.148Z,7.8
2022-12-24T21:15:00.370Z,7.8
2022-12-24T21:20:00.423Z,7.9
2022-12-24T21:25:00.638Z,7.6
2022-12-24T21:30:00.364Z,7.6
2022-12-24T21:35:00.353Z,7.8
2022-12-24T21:40:00.567Z,7.6
2022-12-24T21:45:00.278Z,7.6
2022-12-24T21:50:00.440Z,7.4
2022-12-24T21:55:00.593Z,7.4
2022-12-24T22:00:00.469Z,7.3
2022-12-24T22:05:00.168Z,7.4
2022-12-24T22:10:00.368Z,7.2
2022-12-24T22:15:00.174Z,7.3
2022-12-24T22:20:00.205Z,7.4
2022-12-24T22:25:00.391Z,7.4
2022-12-24T22:30:00.290Z,7.3
2022-12-24T22:35:00.405Z,7.3
2022-12-24T22:40:00.538Z,7.2
2022-12-24T22:45:00.377Z,7.2
2022-12-24T22:50:00.552Z,7.2
2022-12-24T22:55:00.466Z,7.3
2022-12-24T23:00:00.419Z,7.5
2022-12-24T23:05:00.401Z,7.3
2022-12-24T23:10:00.376Z,7.4
2022-12-24T23:15:00.257Z,7.3
2022-12-24T23:20:00.148Z,7.5
2022-12-24T23:25:00.311Z,7.6
2022-12-24T23:30:00.443Z,7.6
2022-12-24T23:35:00.715Z,7.6
2022-12-24T23:40:00.241Z,7.7
2022-12-24T23:45:00.178Z,7.8
2022-12-24T23:50:00.193Z,7.7
2022-12-24T23:55:00.279Z,7.8
